ADDS METAR Data INFO
IDs: Format: Raw Decoded Include TAF

Data at: 1307 UTC 11 Dec 2017

KMNN 111253Z AUTO 19005KT 8SM CLR M07/M09 A3005 RMK AO2 SLP192 T10671094
KMNN 111153Z AUTO 15005KT 10SM CLR M07/M09 A3004 RMK AO2 SLP188 T10671089 11011 21083 50001
KMNN 111053Z AUTO 00000KT 10SM CLR M08/M11 A3006 RMK AO2 SLP193 T10781106
KMNN 110953Z AUTO 00000KT 10SM CLR M04/M08 A3005 RMK AO2 SLP191 T10441083
KMNN 110853Z AUTO 33006KT 10SM CLR M03/M08 A3004 RMK AO2 SLP185 T10331078 51011
KMNN 110841Z AUTO 33007KT 10SM SCT028 M03/M08 A3003 RMK AO2 T10281078
KMNN 110753Z AUTO 32011KT 10SM OVC022 M01/M06 A3003 RMK AO2 SLP181 T10111061
KMNN 110653Z AUTO 32011KT 10SM OVC026 M01/M06 A3003 RMK AO2 SLP181 T10111056
KMNN 110553Z AUTO 31011KT 10SM FEW021 OVC029 M01/M06 A3000 RMK AO2 SLP173 T10111056 10000 21017 53013
KMNN 110453Z AUTO 30008KT 10SM OVC035 M01/M06 A2998 RMK AO2 SLP164 T10061056 400001050
KMNN 110353Z AUTO 26010KT 10SM OVC038 M01/M06 A2997 RMK AO2 SLP161 T10061061
KMNN 110253Z AUTO 22008KT 10SM OVC039 M01/M06 A2996 RMK AO2 SLP161 T10111061 56007
KMNN 110153Z AUTO 20007KT 10SM OVC040 M02/M06 A2997 RMK AO2 SLP162 T10171061
KMNN 110053Z AUTO 20007KT 10SM OVC041 M02/M07 A2998 RMK AO2 SLP166 T10171067
KMNN 102353Z AUTO 23008KT 10SM OVC042 M01/M07 A2999 RMK AO2 SLP167 T10111072 11011 21028 51018
KMNN 102253Z AUTO 23009KT 10SM BKN046 OVC060 M01/M07 A2998 RMK AO2 SLP165 T10111072
KMNN 102153Z AUTO 23008KT 10SM OVC055 M02/M07 A2995 RMK AO2 SLP156 T10171072
KMNN 102053Z AUTO 21010KT 10SM OVC060 M02/M07 A2993 RMK AO2 SLP150 T10171072 56014
KMNN 101953Z AUTO 21015KT 10SM FEW060 OVC085 M02/M08 A2994 RMK AO2 SLP150 T10171078
KMNN 101853Z AUTO 22018G22KT 10SM BKN090 OVC120 M02/M08 A2995 RMK AO2 SLP156 T10221078
KMNN 101753Z AUTO 23015KT 10SM BKN080 OVC095 M03/M08 A2998 RMK AO2 SLP165 T10281083 11028 21050 58023
KMNN 101653Z AUTO 23013KT 10SM OVC075 M04/M08 A3002 RMK AO2 SLP181 T10391083
KMNN 101553Z AUTO 23013KT 10SM SCT080 OVC095 M04/M09 A3005 RMK AO2 SLP191 T10441089
KMNN 101453Z AUTO 23015G20KT 10SM SCT095 BKN110 M05/M09 A3005 RMK AO2 SLP190 T10501089 53009 $
KMNN 101412Z AUTO 23014KT 10SM SCT026 OVC100 M04/M09 A3004 RMK AO2 T10441089 $
KMNN 101353Z AUTO 23012KT 10SM OVC026 M05/M09 A3003 RMK AO2 SLP185 T10501089 $
KMNN 101327Z AUTO 23009KT 9SM BKN028 OVC033 M05/M08 A3003 RMK AO2 T10501083 $
KMNN 101253Z AUTO 23013G18KT 9SM FEW014 OVC036 M04/M08 A3003 RMK AO2 SLP183 T10441083 $
KMNN 101222Z AUTO 25011G18KT 10SM SCT024 OVC036 M04/M07 A3002 RMK AO2 T10391067 $
KMNN 101153Z AUTO 25010KT 8SM SCT015 OVC025 M03/M06 A3002 RMK AO2 SLP180 T10331061 11028 21044 53008 $
KMNN 101139Z AUTO 24007KT 8SM BKN015 OVC038 M03/M06 A3001 RMK AO2 T10331056 $
KMNN 101131Z AUTO 24009KT 8SM BKN013 OVC020 M03/M06 A3001 RMK AO2 T10331061 $
KMNN 101053Z AUTO 26009KT 7SM FEW016 BKN022 BKN031 M03/M06 A3000 RMK AO2 SLP174 T10331056 $
KMNN 101023Z AUTO 24008KT 7SM SCT014 M04/M07 A3000 RMK AO2 T10391067 $
KMNN 101009Z AUTO 24007KT 7SM BKN013 BKN032 M04/M07 A2999 RMK AO2 T10391067 $
KMNN 100953Z AUTO 25007KT 7SM FEW013 SCT033 M04/M07 A2999 RMK AO2 SLP171 T10391067 $
KMNN 100853Z AUTO 26006KT 8SM BKN034 M04/M07 A3000 RMK AO2 SLP172 T10441072 51015 $
KMNN 100753Z AUTO 29009KT 9SM OVC037 M03/M06 A2999 RMK AO2 SLP170 T10281061 $
KMNN 100700Z AUTO 29007KT 8SM SCT027 OVC036 M03/M06 A2997 RMK AO2 T10281061 $
KMNN 100653Z AUTO 30008KT 8SM BKN027 OVC036 M03/M06 A2997 RMK AO2 SLP161 T10281061 $
KMNN 100553Z AUTO 30008KT 7SM OVC021 M03/M06 A2995 RMK AO2 SLP155 60000 T10281056 11028 21028 51022 $
KMNN 100453Z AUTO 30007KT 6SM BR FEW013 OVC027 M03/M05 A2993 RMK AO2 SLP149 T10281050 410111083 $
KMNN 100409Z AUTO 32008KT 6SM BR FEW013 BKN027 OVC032 M03/M05 A2993 RMK AO2 T10281050 $
KMNN 100353Z AUTO 32009KT 7SM FEW013 OVC032 M03/M05 A2992 RMK AO2 SLP145 T10281050 $
KMNN 100337Z AUTO 32012KT 6SM BR FEW011 OVC032 M03/M05 A2991 RMK AO2 T10281050 $
KMNN 100326Z AUTO 33011KT 6SM BR SCT011 BKN029 OVC037 M03/M05 A2990 RMK AO2 T10281050 $
KMNN 100253Z AUTO 30007KT 5SM BR BKN010 BKN013 OVC018 M03/M04 A2988 RMK AO2 SLP133 60000 T10281044 53020 $
KMNN 100218Z AUTO 28003KT 5SM BR OVC010 M03/M04 A2986 RMK AO2 T10281044 $
KMNN 100153Z AUTO 26004KT 5SM BR OVC009 M03/M04 A2986 RMK AO2 SLP125 T10281044 $
KMNN 100133Z AUTO 25004KT 6SM BR OVC009 M03/M05 A2985 RMK AO2 T10281050 $